YBBNYBAS

Guest
Details From YBBN - Brisbane Intl
To YBAS - Alice Springs
Flight Number -
Tags decoded
Created
Modified
Stats Distance 1,062 nm / 1,968 km
Max Altitude 0 ft / 0 m
Waypoints 2
Social Downloads 0
Likes 0
Share VATSIM

Download

Looking for another format? Having issues loading an existing format? Contact us
Advertisement - Login to hide

Notes

Requested: YBBN G326 T11 YBAS Unmatched points: G326 T11

Route

YBBN YBAS

ID Type Via Altitude Latitude Longitude Leg Dist Tot Dist Heading (true) Name
O YBBN APT - 0 ft / 0 m -27.37571˚ 153.12771˚ - 0 nm - Brisbane Intl
O YBAS APT - 0 ft / 0 m -23.80445˚ 133.89522˚ 1062 nm 1062 nm 277° / 286° Alice Springs

Altitude Profile

Advertisement - Login to hide

Weather


0- 5 10 15 20 25 30 35+ Temperature / ° C

Clouds and Precipitation
Forecast for 2018-01-16 12:00 UTC. Updated 16 minutes ago

Ground ~20,000 ft ~40,000 ft Winds

YBBN

Details ICAO YBBN (BNE)
Name Brisbane Intl
Region Australia
Timezone Australia/Brisbane (UTC+10.0)
Stats Elevation 12 ft / 4 m (AMSL)
Location -27.375714° 153.127710°
Runways 2
Magnetic Variation 10.985° E

METAR

YBBN 161100Z 14012KT CAVOK 23/13 Q1016 NOSIG

Decode

TAF

TAF YBBN 160504Z 1606/1712 11016G26KT CAVOK FM160700 14014KT CAVOK FM161100 17012KT 9999 FEW030 FM161600 22006KT 9999 FEW025 FM162200 16010KT CAVOK FM170100 11012KT CAVOK FM170800 14010KT 9999 FEW025

Decode

Departure Runways

ID Width Length Bearing (true) Bearing (mag) Surface Threshold Offset Overrun Length
01 148 ft / 45 m 11,805 ft / 3,598 m 26.93° 15.95° Asphalt 197 ft / 60 m 0 ft / 0 m
14 98 ft / 30 m 5,787 ft / 1,764 m 145.66° 134.68° Asphalt 197 ft / 60 m 0 ft / 0 m
19 148 ft / 45 m 11,805 ft / 3,598 m 206.92° 195.94° Asphalt 0 ft / 0 m 0 ft / 0 m
32 98 ft / 30 m 5,787 ft / 1,764 m 325.66° 314.68° Asphalt 197 ft / 60 m 0 ft / 0 m

YBAS

Details ICAO YBAS (ASP)
Name Alice Springs
Region Australia
Timezone Australia/Darwin (UTC+9.5)
Stats Elevation 1,789 ft / 545 m (AMSL)
Location -23.804452° 133.895220°
Runways 2
Magnetic Variation 4.593° E

METAR

YBAS 161100Z AUTO 13007KT 9999 // NCD 29/M01 Q1010 RF00.0/000.0

Decode

TAF

TAF YBAS 160505Z 1606/1706 11014KT CAVOK FM161100 12007KT CAVOK FM170000 10014KT CAVOK

Decode

Destination Runways

ID Width Length Bearing (true) Bearing (mag) Surface Threshold Offset Overrun Length
12 148 ft / 45 m 7,996 ft / 2,437 m 120.40° 115.81° Asphalt 0 ft / 0 m 0 ft / 0 m
17 59 ft / 18 m 3,729 ft / 1,137 m 178.24° 173.65° Asphalt 0 ft / 0 m 0 ft / 0 m
30 148 ft / 45 m 7,996 ft / 2,437 m 300.40° 295.81° Asphalt 0 ft / 0 m 0 ft / 0 m
35 59 ft / 18 m 3,729 ft / 1,137 m 358.24° 353.65° Asphalt 0 ft / 0 m 0 ft / 0 m

Approach Navaids

Runway Type Ident Frequency Range Bearing (true) Bearing (mag) Slope Elevation
12 Localiser IAS 109.90 MHz 18 nm / 33 km 120.58° 115.99° - 1,789 ft / 545 m (AMSL)
12 Glidescope IAS 109.90 MHz 10 nm / 19 km 120.40° 115.81° 3.00° 1,789 ft / 545 m (AMSL)

Popular Alternatives